sensor_id;sensor_type;location;lat;lon;timestamp;P1;durP1;ratioP1;P2;durP2;ratioP2
9801;SDS011;4940;50.900;4.672;2023-02-03T00:02:11;7.75;;;4.25;;
9801;SDS011;4940;50.900;4.672;2023-02-03T00:04:39;6.82;;;4.18;;
9801;SDS011;4940;50.900;4.672;2023-02-03T00:07:06;5.47;;;3.97;;
9801;SDS011;4940;50.900;4.672;2023-02-03T00:09:38;5.05;;;3.83;;
9801;SDS011;4940;50.900;4.672;2023-02-03T00:12:06;6.53;;;4.00;;
9801;SDS011;4940;50.900;4.672;2023-02-03T00:14:34;6.28;;;4.03;;
9801;SDS011;4940;50.900;4.672;2023-02-03T00:17:02;7.10;;;4.47;;
9801;SDS011;4940;50.900;4.672;2023-02-03T00:19:29;6.95;;;4.50;;
9801;SDS011;4940;50.900;4.672;2023-02-03T00:21:57;9.07;;;5.13;;
9801;SDS011;4940;50.900;4.672;2023-02-03T00:24:24;5.80;;;4.45;;
9801;SDS011;4940;50.900;4.672;2023-02-03T00:26:54;6.97;;;4.40;;
9801;SDS011;4940;50.900;4.672;2023-02-03T00:29:21;6.20;;;4.50;;
9801;SDS011;4940;50.900;4.672;2023-02-03T00:31:50;5.47;;;4.82;;
9801;SDS011;4940;50.900;4.672;2023-02-03T00:34:18;9.60;;;5.85;;
9801;SDS011;4940;50.900;4.672;2023-02-03T00:36:45;8.43;;;5.47;;
9801;SDS011;4940;50.900;4.672;2023-02-03T00:39:13;5.45;;;4.47;;
9801;SDS011;4940;50.900;4.672;2023-02-03T00:41:40;6.80;;;5.82;;
9801;SDS011;4940;50.900;4.672;2023-02-03T00:44:09;8.23;;;5.45;;
9801;SDS011;4940;50.900;4.672;2023-02-03T00:46:36;7.40;;;5.05;;
9801;SDS011;4940;50.900;4.672;2023-02-03T00:49:04;6.15;;;4.68;;
9801;SDS011;4940;50.900;4.672;2023-02-03T00:51:31;6.85;;;5.03;;
9801;SDS011;4940;50.900;4.672;2023-02-03T00:53:59;7.47;;;4.70;;
9801;SDS011;4940;50.900;4.672;2023-02-03T00:56:26;6.63;;;4.65;;
9801;SDS011;4940;50.900;4.672;2023-02-03T00:58:54;7.90;;;4.60;;
9801;SDS011;4940;50.900;4.672;2023-02-03T01:01:22;7.63;;;4.68;;
9801;SDS011;4940;50.900;4.672;2023-02-03T01:03:50;5.93;;;5.05;;
9801;SDS011;4940;50.900;4.672;2023-02-03T01:06:19;5.70;;;4.80;;
9801;SDS011;4940;50.900;4.672;2023-02-03T01:08:47;6.38;;;4.90;;
9801;SDS011;4940;50.900;4.672;2023-02-03T01:11:15;6.10;;;5.43;;
9801;SDS011;4940;50.900;4.672;2023-02-03T01:13:43;5.95;;;5.15;;
9801;SDS011;4940;50.900;4.672;2023-02-03T01:16:11;6.05;;;5.55;;
9801;SDS011;4940;50.900;4.672;2023-02-03T01:18:42;5.75;;;5.25;;
9801;SDS011;4940;50.900;4.672;2023-02-03T01:21:11;8.77;;;6.05;;
9801;SDS011;4940;50.900;4.672;2023-02-03T01:23:39;9.63;;;4.93;;
9801;SDS011;4940;50.900;4.672;2023-02-03T01:26:07;6.63;;;5.40;;
9801;SDS011;4940;50.900;4.672;2023-02-03T01:28:36;8.90;;;4.63;;
9801;SDS011;4940;50.900;4.672;2023-02-03T01:31:10;7.32;;;4.88;;
9801;SDS011;4940;50.900;4.672;2023-02-03T01:33:38;11.40;;;4.75;;
9801;SDS011;4940;50.900;4.672;2023-02-03T01:36:07;11.63;;;5.50;;
9801;SDS011;4940;50.900;4.672;2023-02-03T01:38:35;6.95;;;5.28;;
9801;SDS011;4940;50.900;4.672;2023-02-03T01:41:04;9.02;;;5.50;;
9801;SDS011;4940;50.900;4.672;2023-02-03T01:43:33;6.85;;;5.53;;
9801;SDS011;4940;50.900;4.672;2023-02-03T01:46:02;6.97;;;6.28;;
9801;SDS011;4940;50.900;4.672;2023-02-03T01:48:32;11.40;;;5.88;;
9801;SDS011;4940;50.900;4.672;2023-02-03T01:51:01;8.23;;;5.70;;
9801;SDS011;4940;50.900;4.672;2023-02-03T01:53:30;9.98;;;5.18;;
9801;SDS011;4940;50.900;4.672;2023-02-03T01:55:58;9.30;;;5.28;;
9801;SDS011;4940;50.900;4.672;2023-02-03T01:58:29;9.73;;;4.82;;
9801;SDS011;4940;50.900;4.672;2023-02-03T02:00:59;6.90;;;6.20;;
9801;SDS011;4940;50.900;4.672;2023-02-03T02:03:28;10.18;;;5.80;;
9801;SDS011;4940;50.900;4.672;2023-02-03T02:06:00;7.78;;;4.88;;
9801;SDS011;4940;50.900;4.672;2023-02-03T02:08:31;9.05;;;5.35;;
9801;SDS011;4940;50.900;4.672;2023-02-03T02:10:58;9.75;;;5.40;;
9801;SDS011;4940;50.900;4.672;2023-02-03T02:13:27;6.90;;;5.03;;
9801;SDS011;4940;50.900;4.672;2023-02-03T02:15:57;9.27;;;4.82;;
9801;SDS011;4940;50.900;4.672;2023-02-03T02:21:34;6.22;;;4.50;;
9801;SDS011;4940;50.900;4.672;2023-02-03T02:30:28;6.13;;;3.92;;
9801;SDS011;4940;50.900;4.672;2023-02-03T02:33:32;5.32;;;3.97;;
9801;SDS011;4940;50.900;4.672;2023-02-03T02:36:07;7.53;;;3.40;;
9801;SDS011;4940;50.900;4.672;2023-02-03T02:38:45;5.65;;;3.08;;
9801;SDS011;4940;50.900;4.672;2023-02-03T02:41:18;4.43;;;3.65;;
9801;SDS011;4940;50.900;4.672;2023-02-03T02:43:49;6.35;;;3.20;;
9801;SDS011;4940;50.900;4.672;2023-02-03T02:46:24;7.32;;;3.05;;
9801;SDS011;4940;50.900;4.672;2023-02-03T02:48:59;5.68;;;2.80;;
9801;SDS011;4940;50.900;4.672;2023-02-03T02:51:30;6.88;;;3.00;;
9801;SDS011;4940;50.900;4.672;2023-02-03T02:53:59;4.25;;;2.60;;
9801;SDS011;4940;50.900;4.672;2023-02-03T02:56:29;7.47;;;2.70;;
9801;SDS011;4940;50.900;4.672;2023-02-03T02:58:58;4.15;;;2.33;;
9801;SDS011;4940;50.900;4.672;2023-02-03T03:01:28;6.07;;;2.60;;
9801;SDS011;4940;50.900;4.672;2023-02-03T03:03:55;6.82;;;2.28;;
9801;SDS011;4940;50.900;4.672;2023-02-03T03:06:28;5.28;;;2.00;;
9801;SDS011;4940;50.900;4.672;2023-02-03T03:08:59;5.55;;;2.08;;
9801;SDS011;4940;50.900;4.672;2023-02-03T03:11:31;4.28;;;1.75;;
9801;SDS011;4940;50.900;4.672;2023-02-03T03:14:02;1.92;;;1.80;;
9801;SDS011;4940;50.900;4.672;2023-02-03T03:16:32;5.85;;;2.00;;
9801;SDS011;4940;50.900;4.672;2023-02-03T03:19:05;2.65;;;1.73;;
9801;SDS011;4940;50.900;4.672;2023-02-03T03:21:35;6.18;;;2.00;;
9801;SDS011;4940;50.900;4.672;2023-02-03T03:24:08;4.10;;;1.55;;
9801;SDS011;4940;50.900;4.672;2023-02-03T03:26:38;3.58;;;1.52;;
9801;SDS011;4940;50.900;4.672;2023-02-03T03:29:11;2.78;;;1.80;;
9801;SDS011;4940;50.900;4.672;2023-02-03T03:31:43;6.50;;;1.90;;
9801;SDS011;4940;50.900;4.672;2023-02-03T03:34:12;2.83;;;1.40;;
9801;SDS011;4940;50.900;4.672;2023-02-03T03:36:41;4.18;;;2.10;;
9801;SDS011;4940;50.900;4.672;2023-02-03T03:39:14;6.35;;;1.77;;
9801;SDS011;4940;50.900;4.672;2023-02-03T03:41:49;5.80;;;1.73;;
9801;SDS011;4940;50.900;4.672;2023-02-03T03:44:24;4.00;;;1.88;;
9801;SDS011;4940;50.900;4.672;2023-02-03T03:46:58;3.45;;;1.58;;
9801;SDS011;4940;50.900;4.672;2023-02-03T03:49:33;5.85;;;1.60;;
9801;SDS011;4940;50.900;4.672;2023-02-03T03:52:04;3.70;;;1.77;;
9801;SDS011;4940;50.900;4.672;2023-02-03T03:54:34;1.75;;;1.45;;
9801;SDS011;4940;50.900;4.672;2023-02-03T03:57:04;6.15;;;1.50;;
9801;SDS011;4940;50.900;4.672;2023-02-03T03:59:39;3.20;;;1.77;;
9801;SDS011;4940;50.900;4.672;2023-02-03T04:02:09;5.13;;;1.50;;
9801;SDS011;4940;50.900;4.672;2023-02-03T04:04:38;3.53;;;1.50;;
9801;SDS011;4940;50.900;4.672;2023-02-03T04:07:07;7.55;;;1.60;;
9801;SDS011;4940;50.900;4.672;2023-02-03T04:09:34;3.92;;;1.67;;
9801;SDS011;4940;50.900;4.672;2023-02-03T04:12:02;5.78;;;1.50;;
9801;SDS011;4940;50.900;4.672;2023-02-03T04:14:31;4.65;;;1.45;;
9801;SDS011;4940;50.900;4.672;2023-02-03T04:16:59;3.58;;;1.48;;
9801;SDS011;4940;50.900;4.672;2023-02-03T04:19:27;4.75;;;1.10;;
9801;SDS011;4940;50.900;4.672;2023-02-03T04:21:55;2.10;;;1.35;;
9801;SDS011;4940;50.900;4.672;2023-02-03T04:24:23;3.33;;;1.70;;
9801;SDS011;4940;50.900;4.672;2023-02-03T04:26:50;3.88;;;1.70;;
9801;SDS011;4940;50.900;4.672;2023-02-03T04:29:18;3.70;;;1.20;;
9801;SDS011;4940;50.900;4.672;2023-02-03T04:31:45;3.90;;;1.75;;
9801;SDS011;4940;50.900;4.672;2023-02-03T04:34:13;2.15;;;1.33;;
9801;SDS011;4940;50.900;4.672;2023-02-03T04:36:40;5.40;;;1.42;;
9801;SDS011;4940;50.900;4.672;2023-02-03T04:39:09;2.50;;;1.10;;
9801;SDS011;4940;50.900;4.672;2023-02-03T04:41:36;2.88;;;1.17;;
9801;SDS011;4940;50.900;4.672;2023-02-03T04:44:04;6.10;;;1.23;;
9801;SDS011;4940;50.900;4.672;2023-02-03T04:46:31;6.30;;;1.63;;
9801;SDS011;4940;50.900;4.672;2023-02-03T04:48:59;1.20;;;1.10;;
9801;SDS011;4940;50.900;4.672;2023-02-03T04:51:27;4.60;;;1.48;;
9801;SDS011;4940;50.900;4.672;2023-02-03T04:53:54;6.93;;;1.50;;
9801;SDS011;4940;50.900;4.672;2023-02-03T04:56:23;4.45;;;1.27;;
9801;SDS011;4940;50.900;4.672;2023-02-03T04:58:50;5.32;;;1.30;;
9801;SDS011;4940;50.900;4.672;2023-02-03T05:01:18;3.03;;;1.05;;
9801;SDS011;4940;50.900;4.672;2023-02-03T05:03:45;6.95;;;1.30;;
9801;SDS011;4940;50.900;4.672;2023-02-03T05:06:13;4.95;;;1.63;;
9801;SDS011;4940;50.900;4.672;2023-02-03T05:08:40;4.25;;;1.40;;
9801;SDS011;4940;50.900;4.672;2023-02-03T05:11:08;4.10;;;1.50;;
9801;SDS011;4940;50.900;4.672;2023-02-03T05:13:37;3.22;;;1.40;;
9801;SDS011;4940;50.900;4.672;2023-02-03T05:16:04;3.70;;;1.30;;
9801;SDS011;4940;50.900;4.672;2023-02-03T05:18:32;2.13;;;1.10;;
9801;SDS011;4940;50.900;4.672;2023-02-03T05:20:59;4.75;;;1.20;;
9801;SDS011;4940;50.900;4.672;2023-02-03T05:23:27;7.38;;;1.30;;
9801;SDS011;4940;50.900;4.672;2023-02-03T05:25:54;1.27;;;1.02;;
9801;SDS011;4940;50.900;4.672;2023-02-03T05:28:22;2.90;;;1.48;;
9801;SDS011;4940;50.900;4.672;2023-02-03T05:30:50;5.07;;;1.17;;
9801;SDS011;4940;50.900;4.672;2023-02-03T05:33:18;2.30;;;0.95;;
9801;SDS011;4940;50.900;4.672;2023-02-03T05:35:45;7.25;;;1.70;;
9801;SDS011;4940;50.900;4.672;2023-02-03T05:38:13;3.63;;;1.17;;
9801;SDS011;4940;50.900;4.672;2023-02-03T05:40:40;1.65;;;0.82;;
9801;SDS011;4940;50.900;4.672;2023-02-03T05:43:26;3.13;;;1.13;;
9801;SDS011;4940;50.900;4.672;2023-02-03T05:45:55;2.58;;;0.90;;
9801;SDS011;4940;50.900;4.672;2023-02-03T05:48:25;3.22;;;1.25;;
9801;SDS011;4940;50.900;4.672;2023-02-03T05:50:53;2.13;;;1.15;;
9801;SDS011;4940;50.900;4.672;2023-02-03T05:53:20;4.50;;;1.30;;
9801;SDS011;4940;50.900;4.672;2023-02-03T05:55:48;3.00;;;1.30;;
9801;SDS011;4940;50.900;4.672;2023-02-03T05:58:15;3.28;;;1.20;;
9801;SDS011;4940;50.900;4.672;2023-02-03T06:00:43;2.92;;;1.20;;
9801;SDS011;4940;50.900;4.672;2023-02-03T06:03:11;1.83;;;1.02;;
9801;SDS011;4940;50.900;4.672;2023-02-03T06:05:38;1.85;;;0.90;;
9801;SDS011;4940;50.900;4.672;2023-02-03T06:08:07;3.00;;;1.00;;
9801;SDS011;4940;50.900;4.672;2023-02-03T06:10:35;2.28;;;1.20;;
9801;SDS011;4940;50.900;4.672;2023-02-03T06:13:07;3.45;;;0.82;;
9801;SDS011;4940;50.900;4.672;2023-02-03T06:15:36;1.58;;;1.08;;
9801;SDS011;4940;50.900;4.672;2023-02-03T06:18:03;4.07;;;1.10;;
9801;SDS011;4940;50.900;4.672;2023-02-03T06:20:32;2.80;;;1.15;;
9801;SDS011;4940;50.900;4.672;2023-02-03T06:22:59;2.63;;;0.95;;
9801;SDS011;4940;50.900;4.672;2023-02-03T06:25:27;1.52;;;0.80;;
9801;SDS011;4940;50.900;4.672;2023-02-03T06:27:56;4.38;;;1.10;;
9801;SDS011;4940;50.900;4.672;2023-02-03T06:30:24;7.30;;;1.10;;
9801;SDS011;4940;50.900;4.672;2023-02-03T06:32:51;2.45;;;0.95;;
9801;SDS011;4940;50.900;4.672;2023-02-03T06:35:18;1.10;;;1.00;;
9801;SDS011;4940;50.900;4.672;2023-02-03T06:37:47;1.38;;;0.98;;
9801;SDS011;4940;50.900;4.672;2023-02-03T06:40:15;1.63;;;1.23;;
9801;SDS011;4940;50.900;4.672;2023-02-03T06:42:43;3.88;;;1.13;;
9801;SDS011;4940;50.900;4.672;2023-02-03T06:45:11;3.53;;;1.23;;
9801;SDS011;4940;50.900;4.672;2023-02-03T06:47:39;5.72;;;1.20;;
9801;SDS011;4940;50.900;4.672;2023-02-03T06:50:06;1.90;;;1.02;;
9801;SDS011;4940;50.900;4.672;2023-02-03T06:52:34;1.90;;;1.10;;
9801;SDS011;4940;50.900;4.672;2023-02-03T06:55:04;3.42;;;1.02;;
9801;SDS011;4940;50.900;4.672;2023-02-03T06:57:32;3.78;;;1.13;;
9801;SDS011;4940;50.900;4.672;2023-02-03T06:59:59;2.20;;;1.00;;
9801;SDS011;4940;50.900;4.672;2023-02-03T07:02:27;1.75;;;0.98;;
9801;SDS011;4940;50.900;4.672;2023-02-03T07:04:54;5.00;;;1.45;;
9801;SDS011;4940;50.900;4.672;2023-02-03T07:07:22;3.63;;;1.30;;
9801;SDS011;4940;50.900;4.672;2023-02-03T07:09:49;2.08;;;1.00;;
9801;SDS011;4940;50.900;4.672;2023-02-03T07:12:18;3.15;;;1.13;;
9801;SDS011;4940;50.900;4.672;2023-02-03T07:14:45;3.22;;;1.10;;
9801;SDS011;4940;50.900;4.672;2023-02-03T07:17:12;2.90;;;0.70;;
9801;SDS011;4940;50.900;4.672;2023-02-03T07:19:40;5.38;;;1.20;;
9801;SDS011;4940;50.900;4.672;2023-02-03T07:22:08;2.08;;;1.20;;
9801;SDS011;4940;50.900;4.672;2023-02-03T07:24:35;2.38;;;1.20;;
9801;SDS011;4940;50.900;4.672;2023-02-03T07:27:03;1.90;;;0.98;;
9801;SDS011;4940;50.900;4.672;2023-02-03T07:29:31;2.80;;;1.00;;
9801;SDS011;4940;50.900;4.672;2023-02-03T07:31:58;6.55;;;1.25;;
9801;SDS011;4940;50.900;4.672;2023-02-03T07:34:26;2.83;;;1.20;;
9801;SDS011;4940;50.900;4.672;2023-02-03T07:36:54;3.00;;;1.15;;
9801;SDS011;4940;50.900;4.672;2023-02-03T07:39:21;2.97;;;1.00;;
9801;SDS011;4940;50.900;4.672;2023-02-03T07:41:49;2.40;;;1.23;;
9801;SDS011;4940;50.900;4.672;2023-02-03T07:44:16;2.72;;;1.13;;
9801;SDS011;4940;50.900;4.672;2023-02-03T07:46:45;3.78;;;1.30;;
9801;SDS011;4940;50.900;4.672;2023-02-03T07:49:13;3.13;;;1.23;;
9801;SDS011;4940;50.900;4.672;2023-02-03T07:51:40;5.85;;;1.38;;
9801;SDS011;4940;50.900;4.672;2023-02-03T07:54:08;3.25;;;1.30;;
9801;SDS011;4940;50.900;4.672;2023-02-03T07:56:35;3.15;;;0.90;;
9801;SDS011;4940;50.900;4.672;2023-02-03T07:59:03;5.45;;;1.50;;
9801;SDS011;4940;50.900;4.672;2023-02-03T08:01:30;3.60;;;1.27;;
9801;SDS011;4940;50.900;4.672;2023-02-03T08:03:59;3.10;;;1.20;;
9801;SDS011;4940;50.900;4.672;2023-02-03T08:06:29;2.33;;;1.33;;
9801;SDS011;4940;50.900;4.672;2023-02-03T08:08:57;1.60;;;1.20;;
9801;SDS011;4940;50.900;4.672;2023-02-03T08:11:24;5.72;;;1.40;;
9801;SDS011;4940;50.900;4.672;2023-02-03T08:13:52;4.82;;;1.80;;
9801;SDS011;4940;50.900;4.672;2023-02-03T08:16:19;2.45;;;1.30;;
9801;SDS011;4940;50.900;4.672;2023-02-03T08:18:46;5.25;;;1.40;;
9801;SDS011;4940;50.900;4.672;2023-02-03T08:21:15;1.23;;;1.13;;
9801;SDS011;4940;50.900;4.672;2023-02-03T08:23:43;3.15;;;1.67;;
9801;SDS011;4940;50.900;4.672;2023-02-03T08:26:10;4.30;;;1.73;;
9801;SDS011;4940;50.900;4.672;2023-02-03T08:28:37;3.45;;;1.15;;
9801;SDS011;4940;50.900;4.672;2023-02-03T08:31:08;2.85;;;1.40;;
9801;SDS011;4940;50.900;4.672;2023-02-03T08:33:36;7.50;;;1.30;;
9801;SDS011;4940;50.900;4.672;2023-02-03T08:36:04;1.92;;;1.30;;
9801;SDS011;4940;50.900;4.672;2023-02-03T08:38:33;3.55;;;1.15;;
9801;SDS011;4940;50.900;4.672;2023-02-03T08:41:00;4.05;;;1.30;;
9801;SDS011;4940;50.900;4.672;2023-02-03T08:43:27;4.93;;;1.38;;
9801;SDS011;4940;50.900;4.672;2023-02-03T08:45:55;3.50;;;1.40;;
9801;SDS011;4940;50.900;4.672;2023-02-03T08:48:22;2.05;;;1.13;;
9801;SDS011;4940;50.900;4.672;2023-02-03T08:50:50;4.05;;;1.17;;
9801;SDS011;4940;50.900;4.672;2023-02-03T08:53:17;3.40;;;1.08;;
9801;SDS011;4940;50.900;4.672;2023-02-03T08:55:46;1.75;;;1.05;;
9801;SDS011;4940;50.900;4.672;2023-02-03T08:58:13;1.55;;;1.25;;
9801;SDS011;4940;50.900;4.672;2023-02-03T09:00:41;4.18;;;1.35;;
9801;SDS011;4940;50.900;4.672;2023-02-03T09:03:08;2.50;;;1.20;;
9801;SDS011;4940;50.900;4.672;2023-02-03T09:05:36;6.15;;;1.45;;
9801;SDS011;4940;50.900;4.672;2023-02-03T09:08:03;5.85;;;1.95;;
9801;SDS011;4940;50.900;4.672;2023-02-03T09:10:31;2.95;;;1.20;;
9801;SDS011;4940;50.900;4.672;2023-02-03T09:13:00;3.42;;;1.25;;
9801;SDS011;4940;50.900;4.672;2023-02-03T09:15:27;3.67;;;1.40;;
9801;SDS011;4940;50.900;4.672;2023-02-03T09:17:55;2.97;;;1.48;;
9801;SDS011;4940;50.900;4.672;2023-02-03T09:20:22;3.35;;;1.20;;
9801;SDS011;4940;50.900;4.672;2023-02-03T09:22:50;4.88;;;1.30;;
9801;SDS011;4940;50.900;4.672;2023-02-03T09:25:19;3.78;;;1.25;;
9801;SDS011;4940;50.900;4.672;2023-02-03T09:27:46;3.85;;;1.55;;
9801;SDS011;4940;50.900;4.672;2023-02-03T09:30:15;6.88;;;2.05;;
9801;SDS011;4940;50.900;4.672;2023-02-03T09:32:43;1.70;;;1.40;;
9801;SDS011;4940;50.900;4.672;2023-02-03T09:35:13;1.63;;;1.45;;
9801;SDS011;4940;50.900;4.672;2023-02-03T09:37:41;2.90;;;1.40;;
9801;SDS011;4940;50.900;4.672;2023-02-03T09:40:09;4.72;;;1.20;;
9801;SDS011;4940;50.900;4.672;2023-02-03T09:42:58;2.83;;;1.30;;
9801;SDS011;4940;50.900;4.672;2023-02-03T09:45:35;3.28;;;1.88;;
9801;SDS011;4940;50.900;4.672;2023-02-03T09:48:03;3.28;;;1.50;;
9801;SDS011;4940;50.900;4.672;2023-02-03T09:50:36;2.40;;;1.35;;
9801;SDS011;4940;50.900;4.672;2023-02-03T09:53:06;3.45;;;1.90;;
9801;SDS011;4940;50.900;4.672;2023-02-03T09:55:43;3.90;;;1.98;;
9801;SDS011;4940;50.900;4.672;2023-02-03T09:58:12;4.35;;;1.67;;
9801;SDS011;4940;50.900;4.672;2023-02-03T10:00:44;2.97;;;1.67;;
9801;SDS011;4940;50.900;4.672;2023-02-03T10:03:18;3.88;;;2.20;;
9801;SDS011;4940;50.900;4.672;2023-02-03T10:06:00;4.15;;;1.75;;
9801;SDS011;4940;50.900;4.672;2023-02-03T10:08:40;5.43;;;1.75;;
9801;SDS011;4940;50.900;4.672;2023-02-03T10:11:21;3.38;;;2.17;;
9801;SDS011;4940;50.900;4.672;2023-02-03T10:14:03;4.25;;;2.13;;
9801;SDS011;4940;50.900;4.672;2023-02-03T10:16:45;6.80;;;2.05;;
9801;SDS011;4940;50.900;4.672;2023-02-03T10:19:24;2.30;;;1.65;;
9801;SDS011;4940;50.900;4.672;2023-02-03T10:21:58;7.53;;;2.08;;
9801;SDS011;4940;50.900;4.672;2023-02-03T10:24:29;4.13;;;1.80;;
9801;SDS011;4940;50.900;4.672;2023-02-03T10:27:03;3.03;;;1.70;;
9801;SDS011;4940;50.900;4.672;2023-02-03T10:29:33;4.32;;;1.92;;
9801;SDS011;4940;50.900;4.672;2023-02-03T10:32:07;3.33;;;1.50;;
9801;SDS011;4940;50.900;4.672;2023-02-03T10:34:35;4.80;;;2.03;;
9801;SDS011;4940;50.900;4.672;2023-02-03T10:37:05;5.25;;;1.60;;
9801;SDS011;4940;50.900;4.672;2023-02-03T10:39:42;2.67;;;1.92;;
9801;SDS011;4940;50.900;4.672;2023-02-03T10:42:12;3.47;;;2.03;;
9801;SDS011;4940;50.900;4.672;2023-02-03T10:44:40;2.97;;;1.70;;
9801;SDS011;4940;50.900;4.672;2023-02-03T10:50:00;2.17;;;1.92;;
9801;SDS011;4940;50.900;4.672;2023-02-03T10:52:32;3.00;;;1.95;;
9801;SDS011;4940;50.900;4.672;2023-02-03T10:55:03;5.25;;;2.17;;
9801;SDS011;4940;50.900;4.672;2023-02-03T10:57:34;7.38;;;2.17;;
9801;SDS011;4940;50.900;4.672;2023-02-03T11:00:07;4.03;;;1.73;;
9801;SDS011;4940;50.900;4.672;2023-02-03T11:02:54;6.25;;;2.30;;
9801;SDS011;4940;50.900;4.672;2023-02-03T11:05:24;3.38;;;2.03;;
9801;SDS011;4940;50.900;4.672;2023-02-03T11:07:51;5.43;;;1.90;;
9801;SDS011;4940;50.900;4.672;2023-02-03T11:10:29;4.50;;;1.90;;
9801;SDS011;4940;50.900;4.672;2023-02-03T11:13:15;2.88;;;2.20;;
9801;SDS011;4940;50.900;4.672;2023-02-03T11:15:52;4.95;;;2.13;;
9801;SDS011;4940;50.900;4.672;2023-02-03T11:18:30;3.22;;;2.33;;
9801;SDS011;4940;50.900;4.672;2023-02-03T11:21:15;5.10;;;2.42;;
9801;SDS011;4940;50.900;4.672;2023-02-03T11:23:48;2.72;;;2.22;;
9801;SDS011;4940;50.900;4.672;2023-02-03T11:26:20;3.67;;;2.42;;
9801;SDS011;4940;50.900;4.672;2023-02-03T11:28:51;3.60;;;2.50;;
9801;SDS011;4940;50.900;4.672;2023-02-03T11:31:22;4.85;;;2.85;;
9801;SDS011;4940;50.900;4.672;2023-02-03T11:33:57;4.75;;;2.30;;
9801;SDS011;4940;50.900;4.672;2023-02-03T11:36:26;9.80;;;2.55;;
9801;SDS011;4940;50.900;4.672;2023-02-03T11:39:08;4.10;;;3.00;;
9801;SDS011;4940;50.900;4.672;2023-02-03T11:41:46;5.45;;;3.00;;
9801;SDS011;4940;50.900;4.672;2023-02-03T11:44:19;5.13;;;2.83;;
9801;SDS011;4940;50.900;4.672;2023-02-03T11:46:48;5.85;;;3.08;;
9801;SDS011;4940;50.900;4.672;2023-02-03T11:49:27;4.35;;;3.28;;
9801;SDS011;4940;50.900;4.672;2023-02-03T11:52:14;4.53;;;3.63;;
9801;SDS011;4940;50.900;4.672;2023-02-03T11:54:56;5.18;;;2.92;;
9801;SDS011;4940;50.900;4.672;2023-02-03T11:57:35;5.18;;;3.38;;
9801;SDS011;4940;50.900;4.672;2023-02-03T12:00:15;5.63;;;3.13;;
9801;SDS011;4940;50.900;4.672;2023-02-03T12:08:56;4.70;;;2.92;;
9801;SDS011;4940;50.900;4.672;2023-02-03T12:11:30;3.85;;;2.78;;
9801;SDS011;4940;50.900;4.672;2023-02-03T12:14:15;5.40;;;2.85;;
9801;SDS011;4940;50.900;4.672;2023-02-03T12:17:09;4.78;;;2.60;;
9801;SDS011;4940;50.900;4.672;2023-02-03T12:20:01;3.13;;;2.40;;
9801;SDS011;4940;50.900;4.672;2023-02-03T12:22:39;5.80;;;3.10;;
9801;SDS011;4940;50.900;4.672;2023-02-03T12:25:20;2.95;;;2.47;;
9801;SDS011;4940;50.900;4.672;2023-02-03T12:28:00;5.78;;;2.40;;
9801;SDS011;4940;50.900;4.672;2023-02-03T12:30:36;3.65;;;2.70;;
9801;SDS011;4940;50.900;4.672;2023-02-03T12:33:10;4.50;;;2.67;;
9801;SDS011;4940;50.900;4.672;2023-02-03T12:35:43;5.13;;;2.40;;
9801;SDS011;4940;50.900;4.672;2023-02-03T12:38:18;2.85;;;2.33;;
9801;SDS011;4940;50.900;4.672;2023-02-03T12:40:57;3.10;;;2.80;;
9801;SDS011;4940;50.900;4.672;2023-02-03T12:43:28;8.13;;;2.70;;
9801;SDS011;4940;50.900;4.672;2023-02-03T12:46:03;4.25;;;2.28;;
9801;SDS011;4940;50.900;4.672;2023-02-03T12:48:41;2.92;;;2.17;;
9801;SDS011;4940;50.900;4.672;2023-02-03T12:51:13;2.88;;;2.30;;
9801;SDS011;4940;50.900;4.672;2023-02-03T12:53:50;5.30;;;2.63;;
9801;SDS011;4940;50.900;4.672;2023-02-03T12:56:25;4.80;;;2.63;;
9801;SDS011;4940;50.900;4.672;2023-02-03T12:58:59;5.53;;;2.70;;
9801;SDS011;4940;50.900;4.672;2023-02-03T13:01:31;5.80;;;2.97;;
9801;SDS011;4940;50.900;4.672;2023-02-03T13:04:04;2.67;;;2.10;;
9801;SDS011;4940;50.900;4.672;2023-02-03T13:06:38;2.97;;;2.03;;
9801;SDS011;4940;50.900;4.672;2023-02-03T13:09:19;5.45;;;2.65;;
9801;SDS011;4940;50.900;4.672;2023-02-03T13:11:53;5.93;;;2.35;;
9801;SDS011;4940;50.900;4.672;2023-02-03T13:14:27;2.95;;;2.38;;
9801;SDS011;4940;50.900;4.672;2023-02-03T13:17:01;3.13;;;2.50;;
9801;SDS011;4940;50.900;4.672;2023-02-03T13:19:35;4.38;;;2.30;;
9801;SDS011;4940;50.900;4.672;2023-02-03T13:22:09;4.65;;;2.50;;
9801;SDS011;4940;50.900;4.672;2023-02-03T13:24:38;4.38;;;2.42;;
9801;SDS011;4940;50.900;4.672;2023-02-03T13:27:13;4.15;;;2.50;;
9801;SDS011;4940;50.900;4.672;2023-02-03T13:29:54;3.03;;;1.92;;
9801;SDS011;4940;50.900;4.672;2023-02-03T13:32:41;3.40;;;2.10;;
9801;SDS011;4940;50.900;4.672;2023-02-03T13:35:31;2.30;;;1.70;;
9801;SDS011;4940;50.900;4.672;2023-02-03T13:38:13;3.35;;;1.90;;
9801;SDS011;4940;50.900;4.672;2023-02-03T13:40:58;5.22;;;2.15;;
9801;SDS011;4940;50.900;4.672;2023-02-03T13:43:29;3.28;;;2.15;;
9801;SDS011;4940;50.900;4.672;2023-02-03T13:45:59;3.53;;;1.77;;
9801;SDS011;4940;50.900;4.672;2023-02-03T13:48:28;4.22;;;1.85;;
9801;SDS011;4940;50.900;4.672;2023-02-03T13:51:02;7.90;;;2.00;;
9801;SDS011;4940;50.900;4.672;2023-02-03T13:53:34;3.90;;;1.73;;
9801;SDS011;4940;50.900;4.672;2023-02-03T13:56:05;3.42;;;1.77;;
9801;SDS011;4940;50.900;4.672;2023-02-03T13:58:34;2.88;;;1.77;;
9801;SDS011;4940;50.900;4.672;2023-02-03T14:01:04;3.67;;;1.65;;
9801;SDS011;4940;50.900;4.672;2023-02-03T14:03:51;4.35;;;1.77;;
9801;SDS011;4940;50.900;4.672;2023-02-03T14:09:38;5.55;;;1.70;;
9801;SDS011;4940;50.900;4.672;2023-02-03T14:15:01;4.55;;;2.00;;
9801;SDS011;4940;50.900;4.672;2023-02-03T14:17:54;3.55;;;1.95;;
9801;SDS011;4940;50.900;4.672;2023-02-03T14:20:40;4.10;;;1.95;;
9801;SDS011;4940;50.900;4.672;2023-02-03T14:23:19;4.22;;;1.70;;
9801;SDS011;4940;50.900;4.672;2023-02-03T14:25:51;2.42;;;1.85;;
9801;SDS011;4940;50.900;4.672;2023-02-03T14:28:25;7.50;;;2.10;;
9801;SDS011;4940;50.900;4.672;2023-02-03T14:31:00;3.17;;;1.77;;
9801;SDS011;4940;50.900;4.672;2023-02-03T14:36:44;3.75;;;1.80;;
9801;SDS011;4940;50.900;4.672;2023-02-03T14:42:48;3.60;;;1.70;;
9801;SDS011;4940;50.900;4.672;2023-02-03T14:45:38;5.50;;;2.15;;
9801;SDS011;4940;50.900;4.672;2023-02-03T14:48:28;5.18;;;1.98;;
9801;SDS011;4940;50.900;4.672;2023-02-03T14:51:15;1.77;;;1.50;;
9801;SDS011;4940;50.900;4.672;2023-02-03T14:54:01;2.75;;;1.85;;
9801;SDS011;4940;50.900;4.672;2023-02-03T14:57:01;5.35;;;1.80;;
9801;SDS011;4940;50.900;4.672;2023-02-03T14:59:44;4.90;;;1.83;;
9801;SDS011;4940;50.900;4.672;2023-02-03T15:02:17;6.70;;;1.83;;
9801;SDS011;4940;50.900;4.672;2023-02-03T15:04:47;3.45;;;1.60;;
9801;SDS011;4940;50.900;4.672;2023-02-03T15:07:34;8.05;;;1.50;;
9801;SDS011;4940;50.900;4.672;2023-02-03T15:10:08;3.05;;;1.90;;
9801;SDS011;4940;50.900;4.672;2023-02-03T15:12:42;4.60;;;1.90;;
9801;SDS011;4940;50.900;4.672;2023-02-03T15:15:12;3.83;;;1.83;;
9801;SDS011;4940;50.900;4.672;2023-02-03T15:17:48;1.63;;;1.50;;
9801;SDS011;4940;50.900;4.672;2023-02-03T15:20:24;3.08;;;1.60;;
9801;SDS011;4940;50.900;4.672;2023-02-03T15:22:54;2.13;;;1.70;;
9801;SDS011;4940;50.900;4.672;2023-02-03T15:25:22;4.15;;;2.03;;
9801;SDS011;4940;50.900;4.672;2023-02-03T15:27:51;5.97;;;2.25;;
9801;SDS011;4940;50.900;4.672;2023-02-03T15:30:20;3.90;;;1.95;;
9801;SDS011;4940;50.900;4.672;2023-02-03T15:32:55;3.15;;;1.83;;
9801;SDS011;4940;50.900;4.672;2023-02-03T15:35:28;3.53;;;1.77;;
9801;SDS011;4940;50.900;4.672;2023-02-03T15:37:57;4.28;;;2.03;;
9801;SDS011;4940;50.900;4.672;2023-02-03T15:40:30;3.95;;;1.83;;
9801;SDS011;4940;50.900;4.672;2023-02-03T15:43:03;3.70;;;1.90;;
9801;SDS011;4940;50.900;4.672;2023-02-03T15:45:36;3.38;;;2.00;;
9801;SDS011;4940;50.900;4.672;2023-02-03T15:48:12;5.60;;;1.90;;
9801;SDS011;4940;50.900;4.672;2023-02-03T15:50:43;6.28;;;2.05;;
9801;SDS011;4940;50.900;4.672;2023-02-03T15:53:15;4.60;;;2.40;;
9801;SDS011;4940;50.900;4.672;2023-02-03T15:55:47;2.60;;;1.73;;
9801;SDS011;4940;50.900;4.672;2023-02-03T15:58:16;5.57;;;2.10;;
9801;SDS011;4940;50.900;4.672;2023-02-03T16:00:47;6.90;;;2.25;;
9801;SDS011;4940;50.900;4.672;2023-02-03T16:03:17;4.65;;;2.25;;
9801;SDS011;4940;50.900;4.672;2023-02-03T16:05:46;5.70;;;2.33;;
9801;SDS011;4940;50.900;4.672;2023-02-03T16:08:24;2.22;;;1.90;;
9801;SDS011;4940;50.900;4.672;2023-02-03T16:10:53;4.15;;;2.20;;
9801;SDS011;4940;50.900;4.672;2023-02-03T16:13:22;3.35;;;2.08;;